Time;durP1;ratioP1;P1;durP2;ratioP2;P2;SDS_P1;SDS_P2;PMS_P1;PMS_P2;Temp;Humidity;BMP_temperature;BMP_pressure;BME280_temperature;BME280_humidity;BME280_pressure;Samples;Min_cycle;Max_cycle;Signal;HPM_P1;HPM_P2
2022/12/24 00:01:34;;;;;;;4.47;2.93;;;4.90;99.90;;;;;;5092553;28;20510;-50
2022/12/24 00:04:01;;;;;;;3.47;2.53;;;4.90;99.90;;;;;;5076863;28;20442;-50
2022/12/24 00:06:28;;;;;;;3.67;2.67;;;5.10;99.90;;;;;;5085109;28;20523;-50
2022/12/24 00:08:55;;;;;;;9.47;6.83;;;5.20;99.90;;;;;;5084953;28;20441;-50
2022/12/24 00:11:22;;;;;;;75.30;16.50;;;4.90;99.90;;;;;;5077357;28;20486;-52
2022/12/24 00:13:49;;;;;;;103.40;17.93;;;4.50;99.90;;;;;;5089294;28;20942;-51
2022/12/24 00:16:17;;;;;;;4.73;3.07;;;4.40;99.90;;;;;;5072464;28;20534;-50
2022/12/24 00:18:44;;;;;;;4.63;3.87;;;4.40;99.90;;;;;;5074077;28;20471;-52
2022/12/24 00:21:11;;;;;;;5.20;3.70;;;4.50;99.90;;;;;;5073698;28;21207;-51
2022/12/24 00:23:38;;;;;;;6.57;4.70;;;4.50;99.90;;;;;;5074056;28;20447;-50
2022/12/24 00:26:05;;;;;;;6.00;5.27;;;4.60;99.90;;;;;;5073235;28;20538;-51
2022/12/24 00:28:32;;;;;;;6.20;5.60;;;4.60;99.90;;;;;;5072562;28;20526;-51
2022/12/24 00:30:59;;;;;;;5.37;4.87;;;4.70;99.90;;;;;;5072899;28;20550;-50
2022/12/24 00:33:27;;;;;;;3.50;2.23;;;4.70;99.90;;;;;;5072148;28;20489;-52
2022/12/24 00:35:54;;;;;;;6.77;6.17;;;5.10;99.90;;;;;;5072741;28;20443;-50
2022/12/24 00:38:21;;;;;;;11.60;6.50;;;4.90;99.90;;;;;;5072565;28;20492;-50
2022/12/24 00:40:48;;;;;;;6.80;5.90;;;4.60;99.90;;;;;;5072194;28;20574;-51
2022/12/24 00:43:14;;;;;;;6.13;4.80;;;4.50;99.90;;;;;;5072120;28;20522;-50
2022/12/24 00:45:41;;;;;;;3.70;3.40;;;4.80;99.90;;;;;;5072550;28;20481;-50
2022/12/24 00:48:08;;;;;;;5.00;4.50;;;5.30;99.90;;;;;;5072246;28;20469;-50
2022/12/24 00:50:37;;;;;;;130.87;19.17;;;5.30;99.90;;;;;;5072382;28;20455;-50
2022/12/24 00:53:03;;;;;;;5.67;5.20;;;4.70;99.90;;;;;;5072119;28;20536;-50
2022/12/24 00:55:30;;;;;;;6.83;6.13;;;4.50;99.90;;;;;;5072213;28;20538;-52
2022/12/24 00:57:57;;;;;;;8.50;5.93;;;4.70;99.90;;;;;;5072775;28;20521;-51
2022/12/24 01:00:24;;;;;;;7.20;6.20;;;4.60;99.90;;;;;;5072492;28;20536;-51
2022/12/24 01:02:51;;;;;;;10.13;7.17;;;4.60;99.90;;;;;;5072408;28;20662;-47
2022/12/24 01:05:19;;;;;;;5.03;4.53;;;4.50;99.90;;;;;;5073320;28;20442;-51
2022/12/24 01:07:47;;;;;;;4.50;4.00;;;4.50;99.90;;;;;;5073181;28;20794;-51
2022/12/24 01:10:18;;;;;;;4.50;4.10;;;4.70;99.90;;;;;;5073041;28;20554;-51
2022/12/24 01:12:46;;;;;;;3.47;3.17;;;4.80;99.90;;;;;;5073171;28;20487;-50
2022/12/24 01:15:14;;;;;;;4.23;3.43;;;5.20;99.90;;;;;;5073170;28;20482;-50
2022/12/24 01:17:41;;;;;;;3.83;3.50;;;5.10;99.90;;;;;;5073301;28;20522;-49
2022/12/24 01:20:13;;;;;;;6.23;5.50;;;4.90;99.90;;;;;;5072516;28;20475;-50
2022/12/24 01:22:40;;;;;;;5.97;5.33;;;4.70;99.90;;;;;;5073642;28;20538;-51
2022/12/24 01:25:09;;;;;;;4.80;4.30;;;4.70;99.90;;;;;;5071615;28;20874;-50
2022/12/24 01:27:36;;;;;;;3.93;3.63;;;4.70;99.90;;;;;;5071669;28;20529;-53
2022/12/24 01:30:04;;;;;;;5.93;3.90;;;4.70;99.90;;;;;;5071659;28;20523;-50
2022/12/24 01:32:31;;;;;;;4.03;3.60;;;4.70;99.90;;;;;;5071195;28;20912;-51
2022/12/24 01:34:58;;;;;;;2.60;2.40;;;4.80;99.90;;;;;;5071104;28;20478;-51
2022/12/24 01:37:25;;;;;;;1.83;1.73;;;5.00;99.90;;;;;;5071541;28;20438;-52
2022/12/24 01:43:22;;;;;;;2.60;1.77;;;5.30;99.90;;;;;;5071944;28;21022;-50
2022/12/24 01:45:42;;;;;;;7.73;5.30;;;4.90;99.90;;;;;;5072865;28;20431;-51
2022/12/24 01:48:17;;;;;;;3.20;2.73;;;4.70;99.90;;;;;;5072739;28;20537;-51
2022/12/24 01:50:44;;;;;;;3.27;2.80;;;4.80;99.90;;;;;;5072456;28;20454;-51
2022/12/24 01:53:14;;;;;;;2.03;1.83;;;5.30;99.90;;;;;;5071962;28;20860;-50
2022/12/24 01:55:41;;;;;;;2.83;2.37;;;5.60;99.90;;;;;;5072103;28;20474;-52
2022/12/24 01:58:11;;;;;;;3.57;3.17;;;5.40;99.90;;;;;;5072678;28;20629;-50
2022/12/24 02:00:38;;;;;;;7.07;5.20;;;4.90;99.90;;;;;;5072223;28;20585;-50
2022/12/24 02:03:05;;;;;;;175.57;24.83;;;4.80;99.90;;;;;;5072107;28;20843;-50
2022/12/24 02:05:37;;;;;;;5.80;5.20;;;4.50;99.90;;;;;;5072075;28;20482;-49
2022/12/24 02:08:05;;;;;;;2.60;2.40;;;4.80;99.90;;;;;;5072191;28;21002;-51
2022/12/24 02:10:32;;;;;;;2.47;2.27;;;5.40;99.90;;;;;;5072316;28;20494;-50
2022/12/24 02:13:00;;;;;;;5.93;3.40;;;5.30;99.90;;;;;;5071951;28;20478;-50
2022/12/24 02:15:33;;;;;;;4.53;4.00;;;5.20;99.90;;;;;;5072020;28;20534;-50
2022/12/24 02:18:07;;;;;;;34.00;9.47;;;5.10;99.90;;;;;;5071731;28;20520;-50
2022/12/24 02:21:07;;;;;;;7.40;5.70;;;4.60;99.90;;;;;;5071570;28;20558;-51
2022/12/24 02:24:02;;;;;;;7.93;7.17;;;4.50;99.90;;;;;;5068752;28;20479;-52
2022/12/24 02:26:46;;;;;;;6.00;5.50;;;4.70;99.90;;;;;;5071947;28;20474;-51
2022/12/24 02:29:29;;;;;;;19.57;8.00;;;4.70;99.90;;;;;;5071850;28;20531;-50
2022/12/24 02:32:02;;;;;;;4.27;3.97;;;4.60;99.90;;;;;;5071921;28;21029;-51
2022/12/24 02:34:33;;;;;;;4.43;4.07;;;4.60;99.90;;;;;;5051537;28;20506;-51
2022/12/24 02:37:05;;;;;;;4.90;4.40;;;4.70;99.90;;;;;;5052042;28;20529;-50
2022/12/24 02:39:40;;;;;;;3.40;3.10;;;4.80;99.90;;;;;;5051952;28;20471;-50
2022/12/24 02:42:09;;;;;;;5.50;4.03;;;4.90;99.90;;;;;;5052709;28;20590;-52
2022/12/24 02:44:42;;;;;;;14.40;11.07;;;4.80;99.90;;;;;;5051403;28;20500;-50
2022/12/24 02:47:11;;;;;;;8.40;7.23;;;4.60;99.90;;;;;;5054969;28;20505;-51
2022/12/24 02:49:39;;;;;;;6.03;5.43;;;4.50;99.90;;;;;;5070163;28;20493;-50
2022/12/24 02:52:06;;;;;;;6.53;6.00;;;4.50;99.90;;;;;;5070082;28;20532;-52
2022/12/24 02:54:33;;;;;;;6.33;5.70;;;4.70;99.90;;;;;;5069985;28;20469;-50
2022/12/24 02:57:11;;;;;;;4.73;3.90;;;4.80;99.90;;;;;;5070326;28;20457;-51
2022/12/24 02:59:57;;;;;;;3.90;3.50;;;5.00;99.90;;;;;;5069975;28;20443;-50
2022/12/24 03:02:40;;;;;;;3.77;3.03;;;5.00;99.90;;;;;;5071478;28;20558;-51
2022/12/24 03:05:16;;;;;;;2.23;2.03;;;5.20;99.90;;;;;;5071046;28;20483;-50
2022/12/24 03:07:48;;;;;;;3.90;2.77;;;5.20;99.90;;;;;;5071405;28;20467;-50
2022/12/24 03:10:21;;;;;;;3.30;3.00;;;5.10;99.90;;;;;;5071270;28;20463;-50
2022/12/24 03:12:50;;;;;;;4.03;3.63;;;4.90;99.90;;;;;;5072028;28;20489;-50
2022/12/24 03:15:20;;;;;;;4.57;3.20;;;4.80;99.90;;;;;;5071142;28;20530;-50
2022/12/24 03:17:52;;;;;;;3.37;3.10;;;4.90;99.90;;;;;;5071030;28;20478;-50
2022/12/24 03:20:23;;;;;;;2.93;2.60;;;5.00;99.90;;;;;;5069781;28;20495;-51
2022/12/24 03:22:50;;;;;;;3.90;3.60;;;5.00;99.90;;;;;;5069800;28;20511;-51
2022/12/24 03:25:17;;;;;;;5.97;5.47;;;4.80;99.90;;;;;;5069936;28;20474;-50
2022/12/24 03:27:44;;;;;;;5.43;4.93;;;4.70;99.90;;;;;;5069631;28;21021;-50
2022/12/24 03:30:14;;;;;;;5.17;4.63;;;4.70;99.90;;;;;;5069506;28;20483;-50
2022/12/24 03:32:41;;;;;;;5.37;4.90;;;4.70;99.90;;;;;;5069508;28;20498;-51
2022/12/24 03:35:11;;;;;;;6.20;5.60;;;4.50;99.90;;;;;;5073018;28;20636;-49
2022/12/24 03:37:38;;;;;;;4.20;3.80;;;4.70;99.90;;;;;;5075180;28;20443;-50
2022/12/24 03:40:06;;;;;;;3.80;3.00;;;4.90;99.90;;;;;;5074968;28;20530;-52
2022/12/24 03:42:33;;;;;;;2.63;2.27;;;5.00;99.90;;;;;;5074828;28;20570;-51
2022/12/24 03:45:00;;;;;;;1.83;1.73;;;5.30;99.90;;;;;;5074219;28;20471;-50
2022/12/24 03:47:27;;;;;;;2.37;1.70;;;5.60;99.90;;;;;;5074236;28;20477;-50
2022/12/24 03:49:54;;;;;;;4.50;4.10;;;5.90;99.90;;;;;;5074890;28;20978;-50
2022/12/24 03:52:22;;;;;;;4.47;3.97;;;5.50;99.90;;;;;;5074987;28;20529;-50
2022/12/24 03:54:49;;;;;;;3.77;3.47;;;5.30;99.90;;;;;;5074744;28;20542;-50
2022/12/24 03:57:16;;;;;;;3.60;3.30;;;5.20;99.90;;;;;;5074691;28;20520;-53
2022/12/24 03:59:43;;;;;;;5.40;4.90;;;5.20;99.90;;;;;;5074094;28;20479;-50
2022/12/24 04:02:10;;;;;;;4.07;3.67;;;5.00;99.90;;;;;;5073095;28;21058;-52
2022/12/24 04:04:36;;;;;;;4.13;3.73;;;5.00;99.90;;;;;;5073053;28;20481;-50
2022/12/24 04:07:04;;;;;;;3.13;2.80;;;5.20;99.90;;;;;;5073584;28;20528;-50
2022/12/24 04:09:32;;;;;;;2.17;2.00;;;5.50;99.90;;;;;;5073281;28;20876;-52
2022/12/24 04:11:59;;;;;;;2.37;2.17;;;5.50;99.90;;;;;;5073195;28;20537;-50
2022/12/24 04:14:26;;;;;;;1.70;1.60;;;5.40;99.90;;;;;;5073080;28;20446;-50
2022/12/24 04:16:53;;;;;;;2.70;2.50;;;5.50;99.90;;;;;;5074038;28;20473;-50
2022/12/24 04:19:19;;;;;;;1.63;1.53;;;5.40;99.90;;;;;;5074472;28;20442;-50
2022/12/24 04:21:46;;;;;;;2.87;2.67;;;5.60;99.90;;;;;;5074012;28;20560;-50
2022/12/24 04:24:13;;;;;;;3.20;2.87;;;5.30;99.90;;;;;;5072785;28;20474;-52
2022/12/24 04:26:42;;;;;;;4.50;3.27;;;5.40;99.90;;;;;;5072508;28;20906;-50
2022/12/24 04:29:08;;;;;;;3.70;3.40;;;5.20;99.90;;;;;;5072757;28;20533;-50
2022/12/24 04:31:35;;;;;;;3.67;3.37;;;4.90;99.90;;;;;;5072484;28;20487;-50
2022/12/24 04:34:02;;;;;;;3.70;3.40;;;4.90;99.90;;;;;;5072470;28;20566;-51
2022/12/24 04:36:30;;;;;;;3.50;3.20;;;5.10;99.90;;;;;;5072146;28;20892;-51
2022/12/24 04:38:57;;;;;;;3.20;2.80;;;5.20;99.90;;;;;;5073100;28;20529;-50
2022/12/24 04:41:24;;;;;;;2.30;1.70;;;5.60;99.90;;;;;;5073052;28;20565;-51
2022/12/24 04:43:54;;;;;;;2.53;2.33;;;5.70;99.90;;;;;;5072375;28;20526;-50
2022/12/24 04:46:23;;;;;;;4.47;2.27;;;5.70;99.90;;;;;;5071851;28;20470;-48
2022/12/24 04:48:52;;;;;;;4.70;2.43;;;5.50;99.90;;;;;;5072309;28;20483;-49
2022/12/24 04:51:20;;;;;;;3.37;1.90;;;5.40;99.90;;;;;;5071938;28;20499;-51
2022/12/24 04:53:47;;;;;;;1.97;1.80;;;5.40;99.90;;;;;;5071758;28;20881;-48
2022/12/24 04:56:16;;;;;;;2.37;1.20;;;5.50;99.90;;;;;;5072513;28;20530;-49
2022/12/24 04:58:43;;;;;;;3.70;3.10;;;5.80;99.90;;;;;;5073616;28;20452;-48
2022/12/24 05:01:13;;;;;;;4.47;3.53;;;5.50;99.90;;;;;;5073609;28;20555;-48
2022/12/24 05:03:40;;;;;;;3.37;3.07;;;5.20;99.90;;;;;;5073728;28;20575;-48
2022/12/24 05:06:10;;;;;;;4.20;3.90;;;5.10;99.90;;;;;;5073482;28;20534;-48
2022/12/24 05:08:37;;;;;;;4.43;4.00;;;5.10;99.90;;;;;;5073356;28;20518;-48
2022/12/24 05:11:05;;;;;;;5.63;3.70;;;5.10;99.90;;;;;;5073309;28;21043;-50
2022/12/24 05:13:32;;;;;;;4.73;4.23;;;5.20;99.90;;;;;;5073500;28;20531;-49
2022/12/24 05:15:58;;;;;;;3.20;3.00;;;5.30;99.90;;;;;;5073102;28;20483;-50
2022/12/24 05:18:27;;;;;;;2.93;2.73;;;5.30;99.90;;;;;;5073108;28;20965;-48
2022/12/24 05:20:54;;;;;;;8.50;6.17;;;5.50;99.90;;;;;;5072721;28;21047;-48
2022/12/24 05:26:24;;;;;;;2.87;2.67;;;5.40;99.90;;;;;;5073194;28;20575;-48
2022/12/24 05:28:53;;;;;;;4.00;3.70;;;5.50;99.90;;;;;;5073431;28;20483;-48
2022/12/24 05:31:21;;;;;;;3.93;3.33;;;5.40;99.90;;;;;;5072872;28;20503;-48
2022/12/24 05:33:49;;;;;;;3.63;3.33;;;5.20;99.90;;;;;;5073617;28;20875;-48
2022/12/24 05:36:17;;;;;;;3.60;3.30;;;5.20;99.90;;;;;;5071764;28;20454;-48
2022/12/24 05:38:44;;;;;;;5.73;4.57;;;5.20;99.90;;;;;;5071563;28;20469;-49
2022/12/24 05:41:10;;;;;;;6.83;5.60;;;5.00;99.90;;;;;;5071486;28;20559;-49
2022/12/24 05:43:38;;;;;;;4.13;3.73;;;5.10;99.90;;;;;;5071249;28;20940;-50
2022/12/24 05:46:07;;;;;;;3.80;3.40;;;5.20;99.90;;;;;;5071128;28;20480;-49
2022/12/24 05:48:35;;;;;;;3.23;2.80;;;5.30;99.90;;;;;;5071695;28;20494;-49
2022/12/24 05:51:07;;;;;;;2.50;2.30;;;5.30;99.90;;;;;;5072672;28;20559;-49
2022/12/24 05:53:35;;;;;;;2.07;1.83;;;5.40;99.90;;;;;;5072084;28;20527;-49
2022/12/24 05:56:06;;;;;;;2.50;1.83;;;5.60;99.90;;;;;;5072656;28;20526;-49
2022/12/24 05:58:33;;;;;;;3.07;1.80;;;5.70;99.90;;;;;;5071700;28;20506;-49
2022/12/24 06:01:01;;;;;;;1.50;1.40;;;5.80;99.90;;;;;;5071070;28;20495;-49
2022/12/24 06:03:28;;;;;;;1.00;0.60;;;5.90;99.90;;;;;;5070647;28;20542;-51
2022/12/24 06:06:00;;;;;;;1.67;1.23;;;5.80;99.90;;;;;;5070730;28;20465;-49
2022/12/24 06:08:29;;;;;;;1.53;0.80;;;5.90;99.90;;;;;;5070744;28;20532;-50
2022/12/24 06:10:57;;;;;;;1.27;0.80;;;5.80;99.90;;;;;;5070700;28;20516;-50
2022/12/24 06:13:24;;;;;;;1.20;0.70;;;5.80;99.90;;;;;;5070541;28;20536;-50
2022/12/24 06:15:54;;;;;;;1.40;0.70;;;5.90;99.90;;;;;;5071847;28;20445;-50
2022/12/24 06:18:20;;;;;;;1.00;0.70;;;5.90;99.90;;;;;;5072211;28;20913;-50
2022/12/24 06:20:51;;;;;;;1.10;0.70;;;6.00;99.90;;;;;;5072376;28;20540;-50
2022/12/24 06:23:18;;;;;;;1.37;0.80;;;6.00;99.90;;;;;;5072015;28;20478;-50
2022/12/24 06:25:46;;;;;;;1.13;0.60;;;5.90;99.90;;;;;;5071994;28;20519;-50
2022/12/24 06:28:14;;;;;;;1.50;1.00;;;5.80;99.90;;;;;;5071830;28;20531;-50
2022/12/24 06:30:41;;;;;;;1.30;0.80;;;5.70;99.90;;;;;;5071712;28;20493;-49
2022/12/24 06:33:08;;;;;;;1.00;0.80;;;5.70;99.90;;;;;;5072000;28;20471;-49
2022/12/24 06:35:35;;;;;;;1.67;1.20;;;5.60;99.90;;;;;;5072163;28;20444;-51
2022/12/24 06:38:02;;;;;;;2.77;2.20;;;5.60;99.90;;;;;;5072082;28;20530;-51
2022/12/24 06:40:29;;;;;;;1.80;1.40;;;5.60;99.90;;;;;;5071469;28;20589;-50
2022/12/24 06:42:57;;;;;;;2.10;1.60;;;5.60;99.90;;;;;;5070092;28;20867;-52
2022/12/24 06:45:24;;;;;;;1.40;1.20;;;5.60;99.90;;;;;;5070350;28;20535;-51
2022/12/24 06:47:52;;;;;;;1.77;1.20;;;5.70;99.90;;;;;;5070268;28;20635;-51
2022/12/24 06:50:18;;;;;;;4.77;4.37;;;5.60;99.90;;;;;;5070230;28;21064;-51
2022/12/24 06:52:46;;;;;;;4.80;4.40;;;5.50;99.90;;;;;;5070069;28;20519;-51
2022/12/24 06:55:12;;;;;;;4.40;4.00;;;5.40;99.90;;;;;;5069819;28;20443;-52
2022/12/24 06:57:40;;;;;;;4.80;4.33;;;5.30;99.90;;;;;;5071230;28;20518;-51
2022/12/24 07:00:10;;;;;;;4.20;3.53;;;5.30;99.90;;;;;;5071386;28;20534;-49
2022/12/24 07:02:39;;;;;;;5.30;2.53;;;5.20;99.90;;;;;;5071654;28;20476;-51
2022/12/24 07:05:08;;;;;;;1.30;0.93;;;5.30;99.90;;;;;;5071599;28;20476;-50
2022/12/24 07:07:35;;;;;;;1.10;0.70;;;5.50;99.90;;;;;;5071586;28;20483;-50
2022/12/24 07:10:02;;;;;;;1.00;0.60;;;5.60;99.90;;;;;;5071070;28;20600;-50
2022/12/24 07:12:29;;;;;;;1.63;1.23;;;5.60;99.90;;;;;;5071459;28;20536;-50
2022/12/24 07:14:56;;;;;;;3.00;2.40;;;5.50;99.90;;;;;;5070979;28;20527;-50
2022/12/24 07:17:24;;;;;;;2.83;2.23;;;5.40;99.90;;;;;;5070968;28;20556;-49
2022/12/24 07:19:51;;;;;;;2.60;2.10;;;5.40;99.90;;;;;;5071321;28;20886;-50
2022/12/24 07:22:18;;;;;;;3.60;2.63;;;5.40;99.90;;;;;;5070712;28;20504;-52
2022/12/24 07:24:45;;;;;;;3.23;2.43;;;5.40;99.90;;;;;;5071106;28;20476;-50
2022/12/24 07:27:12;;;;;;;1.00;0.83;;;5.40;99.90;;;;;;5070817;28;20865;-50
2022/12/24 07:29:40;;;;;;;1.40;0.80;;;5.50;99.90;;;;;;5069086;28;20478;-50
2022/12/24 07:32:07;;;;;;;12.50;11.10;;;5.50;99.90;;;;;;5082116;28;20466;-50
2022/12/24 07:34:35;;;;;;;8.97;7.10;;;5.40;99.90;;;;;;5087760;28;20536;-50
2022/12/24 07:37:02;;;;;;;6.90;5.40;;;5.20;99.90;;;;;;5068783;28;20543;-51
2022/12/24 07:39:29;;;;;;;6.03;5.00;;;5.20;99.90;;;;;;5067453;28;20472;-50
2022/12/24 07:41:56;;;;;;;5.90;4.50;;;5.10;99.90;;;;;;5075891;28;20561;-50
2022/12/24 07:44:23;;;;;;;5.73;4.97;;;5.10;99.90;;;;;;5077104;28;20554;-49
2022/12/24 07:46:51;;;;;;;6.30;5.70;;;5.00;99.90;;;;;;5080629;28;20443;-50
2022/12/24 07:49:17;;;;;;;6.13;5.00;;;5.10;99.90;;;;;;5076159;28;20493;-50
2022/12/24 07:51:46;;;;;;;3.10;2.30;;;5.10;99.90;;;;;;5079097;28;20550;-51
2022/12/24 07:54:13;;;;;;;2.30;1.60;;;5.20;99.90;;;;;;5079493;28;20510;-50
2022/12/24 07:56:39;;;;;;;2.17;1.60;;;5.40;99.90;;;;;;5076501;28;20525;-52
2022/12/24 07:59:06;;;;;;;2.60;1.70;;;5.40;99.90;;;;;;5079372;28;20482;-50
2022/12/24 08:01:33;;;;;;;2.70;1.80;;;5.40;99.90;;;;;;5077981;28;20521;-50
2022/12/24 08:04:00;;;;;;;14.00;12.50;;;5.30;99.90;;;;;;5077596;28;20558;-52
2022/12/24 08:06:27;;;;;;;9.07;7.50;;;5.20;99.90;;;;;;5080251;28;20529;-51
2022/12/24 08:08:56;;;;;;;8.00;7.10;;;5.20;99.90;;;;;;5076974;28;20971;-50
2022/12/24 08:11:22;;;;;;;16.63;13.40;;;5.30;99.90;;;;;;5078836;28;20975;-49
2022/12/24 08:13:49;;;;;;;12.67;11.23;;;5.30;99.90;;;;;;5076898;28;20462;-50
2022/12/24 08:16:16;;;;;;;15.43;13.00;;;5.30;99.90;;;;;;5079624;28;20715;-50
2022/12/24 08:18:43;;;;;;;13.43;12.03;;;5.30;99.90;;;;;;5078586;28;20915;-50
2022/12/24 08:21:10;;;;;;;16.90;11.63;;;5.30;99.90;;;;;;5080065;28;20502;-51
2022/12/24 08:23:37;;;;;;;15.63;10.63;;;5.30;99.90;;;;;;5081340;28;20495;-49
2022/12/24 08:26:09;;;;;;;9.17;8.27;;;5.30;99.90;;;;;;5084209;28;20519;-49
2022/12/24 08:28:36;;;;;;;9.30;7.27;;;5.40;99.90;;;;;;5083091;28;20527;-50
2022/12/24 08:31:03;;;;;;;7.67;6.87;;;5.40;99.90;;;;;;5082213;28;20551;-50
2022/12/24 08:33:31;;;;;;;8.90;7.60;;;5.40;99.90;;;;;;5081843;28;20477;-50
2022/12/24 08:35:58;;;;;;;8.10;6.90;;;5.40;99.90;;;;;;5082260;28;20519;-50
2022/12/24 08:38:25;;;;;;;7.07;5.37;;;5.40;99.90;;;;;;5080146;28;20535;-51
2022/12/24 08:40:53;;;;;;;7.23;6.53;;;5.40;99.90;;;;;;5082586;28;20924;-50
2022/12/24 08:43:25;;;;;;;7.43;6.10;;;5.40;99.90;;;;;;5082067;28;21136;-50
2022/12/24 08:45:52;;;;;;;20.67;14.93;;;5.40;99.90;;;;;;5080970;28;20513;-50
2022/12/24 08:48:19;;;;;;;19.83;15.13;;;5.40;99.90;;;;;;5078158;28;20530;-50
2022/12/24 08:50:46;;;;;;;21.57;16.17;;;5.40;99.90;;;;;;5079089;28;20550;-53
2022/12/24 08:53:13;;;;;;;27.43;21.63;;;5.40;99.90;;;;;;5080711;28;20843;-50
2022/12/24 08:55:41;;;;;;;30.30;22.57;;;5.50;99.90;;;;;;5077161;28;20483;-52
2022/12/24 08:58:08;;;;;;;20.30;17.87;;;5.40;99.90;;;;;;5075406;28;20437;-50
2022/12/24 09:00:36;;;;;;;16.70;14.90;;;5.50;99.90;;;;;;5072639;28;20555;-51
2022/12/24 09:03:03;;;;;;;18.63;16.33;;;5.60;99.90;;;;;;5073123;28;20570;-51
2022/12/24 09:05:30;;;;;;;25.03;19.30;;;5.60;99.90;;;;;;5070071;28;20480;-51
2022/12/24 09:07:57;;;;;;;29.80;25.03;;;5.60;99.90;;;;;;5071137;28;20472;-52
2022/12/24 09:10:25;;;;;;;21.03;18.10;;;5.70;99.90;;;;;;5074637;28;20491;-50
2022/12/24 09:12:52;;;;;;;13.00;10.10;;;5.70;99.90;;;;;;5071861;28;20451;-47
2022/12/24 09:15:19;;;;;;;6.73;6.03;;;5.70;99.90;;;;;;5081074;28;20535;-52
2022/12/24 09:17:47;;;;;;;5.10;4.40;;;5.80;99.90;;;;;;5080027;28;20598;-52
2022/12/24 09:20:14;;;;;;;6.70;5.37;;;5.80;99.90;;;;;;5081303;28;20514;-51
2022/12/24 09:22:41;;;;;;;8.07;6.80;;;5.90;99.90;;;;;;5082534;28;20931;-51
2022/12/24 09:25:09;;;;;;;9.67;7.47;;;5.90;99.90;;;;;;5078073;28;20536;-50
2022/12/24 09:27:36;;;;;;;21.73;17.70;;;5.90;99.90;;;;;;5080591;28;20915;-50
2022/12/24 09:30:05;;;;;;;17.00;13.07;;;5.80;99.90;;;;;;5080066;28;20521;-50
2022/12/24 09:32:31;;;;;;;20.40;13.77;;;5.70;99.90;;;;;;5078315;28;20465;-50
2022/12/24 09:35:00;;;;;;;17.80;16.00;;;5.80;99.90;;;;;;5071467;28;20535;-50
2022/12/24 09:37:27;;;;;;;16.03;13.80;;;5.80;99.90;;;;;;5072262;28;20850;-52
2022/12/24 09:39:54;;;;;;;14.63;13.10;;;5.90;99.90;;;;;;5067045;28;20467;-50
2022/12/24 09:42:33;;;;;;;12.83;11.77;;;5.90;99.90;;;;;;5069002;28;20529;-50
2022/12/24 09:45:07;;;;;;;14.17;12.67;;;6.00;99.90;;;;;;5069200;28;20512;-50
2022/12/24 09:47:39;;;;;;;13.20;11.77;;;6.00;99.90;;;;;;5069168;28;21021;-50
2022/12/24 09:50:29;;;;;;;20.80;17.60;;;6.00;99.90;;;;;;5069080;28;20484;-51
2022/12/24 09:53:00;;;;;;;23.60;21.07;;;6.00;99.90;;;;;;5069811;28;20851;-51
2022/12/24 09:55:31;;;;;;;23.57;21.10;;;6.00;99.90;;;;;;5068615;28;20535;-52
2022/12/24 09:57:59;;;;;;;20.47;18.50;;;6.00;99.90;;;;;;5068543;28;20491;-51
2022/12/24 10:00:29;;;;;;;23.03;20.57;;;6.00;99.90;;;;;;5068241;28;20552;-52
2022/12/24 10:02:56;;;;;;;18.13;16.33;;;6.10;99.90;;;;;;5067522;28;20498;-53
2022/12/24 10:05:35;;;;;;;16.00;14.30;;;6.20;99.90;;;;;;5067863;28;20456;-49
2022/12/24 10:08:13;;;;;;;13.63;12.33;;;6.40;99.90;;;;;;5068182;28;20530;-49
2022/12/24 10:10:50;;;;;;;8.70;7.90;;;6.20;99.90;;;;;;5076110;28;20499;-50
2022/12/24 10:13:31;;;;;;;8.80;7.90;;;6.30;99.90;;;;;;5074933;28;20995;-50
2022/12/24 10:16:03;;;;;;;8.63;7.77;;;6.20;99.90;;;;;;5075848;28;20559;-50
2022/12/24 10:18:38;;;;;;;7.03;6.30;;;6.30;99.90;;;;;;5063446;28;20530;-52
2022/12/24 10:21:13;;;;;;;10.50;7.87;;;6.30;99.90;;;;;;5066282;28;20530;-53
2022/12/24 10:23:47;;;;;;;14.57;6.60;;;6.40;99.90;;;;;;5068312;28;20502;-52
2022/12/24 10:26:20;;;;;;;6.17;5.50;;;6.70;99.90;;;;;;5066504;28;20468;-50
2022/12/24 10:28:51;;;;;;;4.80;4.40;;;7.10;99.90;;;;;;5068407;28;20516;-50
2022/12/24 10:31:23;;;;;;;6.50;4.80;;;7.00;99.90;;;;;;5064650;28;20478;-51
2022/12/24 10:33:56;;;;;;;5.97;5.47;;;6.80;99.90;;;;;;5067994;28;20715;-50
2022/12/24 10:36:30;;;;;;;5.70;5.20;;;6.80;99.90;;;;;;5069002;28;20551;-48
2022/12/24 10:38:57;;;;;;;6.57;5.73;;;6.90;99.90;;;;;;5068762;28;20875;-49
2022/12/24 10:41:26;;;;;;;6.17;5.57;;;6.70;99.90;;;;;;5065562;28;21107;-50
2022/12/24 10:43:54;;;;;;;8.03;7.20;;;6.70;99.90;;;;;;5067945;28;20563;-50
2022/12/24 10:46:24;;;;;;;7.77;7.00;;;6.70;99.90;;;;;;5068783;28;20487;-50
2022/12/24 10:48:54;;;;;;;8.90;7.77;;;6.60;99.90;;;;;;5069411;28;20449;-50
2022/12/24 10:51:33;;;;;;;10.40;8.80;;;6.80;99.90;;;;;;5068349;28;20464;-51
2022/12/24 10:54:06;;;;;;;8.67;7.40;;;6.70;99.90;;;;;;5068529;28;20450;-51
2022/12/24 10:56:40;;;;;;;22.03;12.67;;;6.60;99.90;;;;;;5053529;28;20453;-51
2022/12/24 10:59:21;;;;;;;6.90;5.73;;;6.60;99.90;;;;;;5048465;28;20477;-50
2022/12/24 11:01:50;;;;;;;6.47;5.70;;;6.70;99.90;;;;;;5048929;28;20504;-50
2022/12/24 11:04:19;;;;;;;5.83;5.33;;;6.70;99.90;;;;;;5066508;28;20496;-50
2022/12/24 11:06:57;;;;;;;7.90;7.10;;;6.70;99.90;;;;;;5052594;28;20524;-52
2022/12/24 11:09:26;;;;;;;11.50;9.67;;;6.70;99.90;;;;;;5060869;28;20485;-50
2022/12/24 11:11:54;;;;;;;9.70;8.80;;;6.80;99.90;;;;;;5081936;28;20517;-50
2022/12/24 11:14:22;;;;;;;8.13;7.43;;;6.80;99.90;;;;;;5068861;28;20530;-49
2022/12/24 11:16:52;;;;;;;8.00;7.33;;;6.90;99.90;;;;;;5066622;28;20541;-51
2022/12/24 11:19:26;;;;;;;15.80;14.20;;;6.90;99.90;;;;;;5066582;28;20462;-50
2022/12/24 11:22:02;;;;;;;8.80;7.77;;;7.40;99.90;;;;;;5066418;28;20492;-50
2022/12/24 11:24:32;;;;;;;7.80;6.30;;;7.30;99.90;;;;;;5065583;28;20480;-52
2022/12/24 11:27:24;;;;;;;5.80;5.20;;;7.30;99.90;;;;;;5067094;28;20455;-51
2022/12/24 11:29:51;;;;;;;7.47;6.77;;;7.30;99.90;;;;;;5065745;28;20441;-50
2022/12/24 11:32:21;;;;;;;8.63;7.73;;;7.20;99.90;;;;;;5065927;28;20536;-50
2022/12/24 11:34:49;;;;;;;7.20;6.50;;;7.20;99.90;;;;;;5067285;28;20999;-50
2022/12/24 11:37:20;;;;;;;6.47;5.40;;;7.10;99.90;;;;;;5068007;28;20476;-51
2022/12/24 11:39:50;;;;;;;5.83;5.33;;;7.10;99.90;;;;;;5065495;28;20541;-50
2022/12/24 11:42:28;;;;;;;5.90;5.23;;;7.20;99.90;;;;;;5062186;28;20508;-50
2022/12/24 11:44:56;;;;;;;9.07;7.03;;;7.20;99.90;;;;;;5059367;28;20480;-50
2022/12/24 11:47:34;;;;;;;10.70;9.00;;;7.30;99.90;;;;;;5058471;28;20536;-49
2022/12/24 11:50:23;;;;;;;12.40;10.70;;;7.30;99.90;;;;;;5067860;28;20879;-50
2022/12/24 11:52:56;;;;;;;10.07;9.07;;;7.20;99.90;;;;;;5052381;28;20479;-49
2022/12/24 11:55:35;;;;;;;9.37;7.93;;;7.30;99.90;;;;;;5067668;28;20978;-52
2022/12/24 11:58:05;;;;;;;7.93;7.23;;;7.20;99.90;;;;;;5070230;28;20484;-51
2022/12/24 12:00:32;;;;;;;7.23;5.87;;;7.20;99.90;;;;;;5068461;28;20559;-48
2022/12/24 12:03:02;;;;;;;5.43;4.93;;;7.10;99.90;;;;;;5073237;28;20527;-48
2022/12/24 12:05:32;;;;;;;9.33;8.53;;;7.10;99.90;;;;;;5069888;28;20553;-47
2022/12/24 12:08:10;;;;;;;6.57;4.97;;;7.20;99.90;;;;;;5067380;28;20559;-46
2022/12/24 12:10:39;;;;;;;5.27;4.80;;;7.20;99.90;;;;;;5067398;28;20826;-49
2022/12/24 12:13:13;;;;;;;6.00;5.40;;;7.30;99.90;;;;;;5077723;28;20440;-49
2022/12/24 12:15:44;;;;;;;11.83;9.40;;;7.30;99.90;;;;;;5080346;28;20443;-48
2022/12/24 12:18:14;;;;;;;8.20;7.33;;;7.20;99.90;;;;;;5077108;28;20920;-49
2022/12/24 12:20:45;;;;;;;10.83;9.50;;;7.00;99.90;;;;;;5078826;28;20546;-47
2022/12/24 12:23:16;;;;;;;9.63;8.10;;;7.10;99.90;;;;;;5081053;28;20514;-47
2022/12/24 12:25:49;;;;;;;9.00;8.17;;;7.10;99.90;;;;;;5071251;28;20508;-48
2022/12/24 12:28:21;;;;;;;6.80;6.20;;;7.10;99.90;;;;;;5071190;28;20795;-49
2022/12/24 12:30:59;;;;;;;8.87;8.03;;;7.10;99.90;;;;;;5071258;28;20555;-47
2022/12/24 12:33:35;;;;;;;8.03;7.30;;;7.10;99.90;;;;;;5071625;28;20878;-48
2022/12/24 12:36:03;;;;;;;7.43;6.83;;;7.10;99.90;;;;;;5072939;28;20519;-50
2022/12/24 12:38:31;;;;;;;6.23;5.63;;;7.10;99.90;;;;;;5070811;28;21157;-50
2022/12/24 12:41:19;;;;;;;4.80;4.30;;;7.20;99.90;;;;;;5071730;28;20495;-48
2022/12/24 12:44:14;;;;;;;4.67;4.27;;;7.10;99.90;;;;;;5072159;28;20568;-47
2022/12/24 12:46:51;;;;;;;5.93;4.60;;;7.10;99.90;;;;;;5068989;28;20929;-49
2022/12/24 12:49:33;;;;;;;4.20;3.80;;;7.20;99.90;;;;;;5072251;28;20528;-48
2022/12/24 12:52:07;;;;;;;1.73;1.57;;;7.20;99.90;;;;;;5072783;28;20534;-47
2022/12/24 12:55:01;;;;;;;1.67;1.10;;;7.30;99.90;;;;;;5070959;28;20875;-47
2022/12/24 12:57:34;;;;;;;2.63;1.60;;;7.20;99.90;;;;;;5070159;28;20475;-47
2022/12/24 13:00:05;;;;;;;2.03;1.60;;;7.20;99.90;;;;;;5079134;28;21015;-47
2022/12/24 13:03:01;;;;;;;3.63;2.43;;;7.10;99.90;;;;;;5078457;28;20984;-47
2022/12/24 13:06:12;;;;;;;4.03;3.60;;;7.10;99.90;;;;;;5068993;28;21063;-48
2022/12/24 13:09:06;;;;;;;4.20;3.43;;;7.00;99.90;;;;;;5068289;28;20882;-47
2022/12/24 13:11:50;;;;;;;9.07;5.03;;;7.00;99.90;;;;;;5061188;28;20496;-47
2022/12/24 13:14:34;;;;;;;16.93;10.97;;;7.10;99.90;;;;;;5082824;28;21008;-47